Time;durP1;ratioP1;P1;durP2;ratioP2;P2;SDS_P1;SDS_P2;PMS_P1;PMS_P2;Temp;Humidity;BMP_temperature;BMP_pressure;BME280_temperature;BME280_humidity;BME280_pressure;Samples;Min_cycle;Max_cycle;Signal;HPM_P1;HPM_P2
2023/01/16 00:00:28;;;;;;;1.63;0.50;;;;;;;5.50;69.92;99106.47;5041647;28;20203;-79
2023/01/16 00:02:54;;;;;;;1.47;0.50;;;;;;;5.52;69.79;99107.22;5046939;28;20218;-80
2023/01/16 00:05:20;;;;;;;2.23;0.57;;;;;;;5.51;69.71;99107.31;5054555;28;20201;-80
2023/01/16 00:07:47;;;;;;;1.17;0.60;;;;;;;5.53;69.65;99103.63;5053359;28;20209;-80
2023/01/16 00:10:14;;;;;;;2.97;1.23;;;;;;;5.55;69.28;99090.31;5050359;28;20206;-81
2023/01/16 00:12:40;;;;;;;1.13;0.40;;;;;;;5.57;69.40;99094.53;5050389;28;20230;-80
2023/01/16 00:15:07;;;;;;;0.97;0.40;;;;;;;5.59;69.44;99102.34;5047527;28;20217;-80
2023/01/16 00:17:35;;;;;;;1.80;0.70;;;;;;;5.57;69.40;99094.53;5054508;28;20288;-81
2023/01/16 00:20:02;;;;;;;3.30;0.70;;;;;;;5.56;69.38;99100.75;5049465;28;20202;-82
2023/01/16 00:22:28;;;;;;;1.07;0.57;;;;;;;5.56;69.29;99090.19;5050101;28;20210;-81
2023/01/16 00:24:58;;;;;;;2.33;0.37;;;;;;;5.57;69.36;99088.41;5050082;28;20292;-81
2023/01/16 00:27:24;;;;;;;2.37;0.77;;;;;;;5.59;69.42;99087.34;5051302;28;20205;-82
2023/01/16 00:29:51;;;;;;;1.40;0.50;;;;;;;5.64;69.76;99067.72;5051867;28;20212;-81
2023/01/16 00:32:17;;;;;;;3.00;0.70;;;;;;;5.61;69.60;99078.47;5052787;28;20233;-80
2023/01/16 00:34:45;;;;;;;2.00;0.60;;;;;;;5.59;69.55;99075.94;5049378;28;20205;-81
2023/01/16 00:37:11;;;;;;;2.43;0.70;;;;;;;5.55;69.71;99059.44;5037982;28;20206;-82
2023/01/16 00:39:39;;;;;;;2.33;0.67;;;;;;;5.53;69.95;99048.16;5047974;28;20197;-80
2023/01/16 00:42:06;;;;;;;2.07;0.57;;;;;;;5.54;69.99;99049.00;5051916;28;20236;-81
2023/01/16 00:44:32;;;;;;;2.67;0.50;;;;;;;5.51;69.86;99046.59;5053560;28;20216;-80
2023/01/16 00:46:59;;;;;;;0.83;0.40;;;;;;;5.52;69.95;99043.00;5053446;28;20736;-81
2023/01/16 00:49:25;;;;;;;2.23;0.50;;;;;;;5.48;69.91;99037.06;5053623;28;20202;-80
2023/01/16 00:51:54;;;;;;;1.33;0.40;;;;;;;5.46;70.00;99038.13;5046682;28;20558;-82
2023/01/16 00:54:20;;;;;;;1.47;0.70;;;;;;;5.47;69.78;99034.53;5054433;28;20225;-81
2023/01/16 00:56:47;;;;;;;1.37;0.60;;;;;;;5.46;70.00;99032.84;5049168;28;20204;-82
2023/01/16 00:59:13;;;;;;;1.90;0.70;;;;;;;5.44;70.01;99025.00;5042645;28;20213;-81
2023/01/16 01:01:40;;;;;;;1.43;0.60;;;;;;;5.43;70.02;99023.31;5055405;28;20201;-80
2023/01/16 01:04:06;;;;;;;1.87;0.53;;;;;;;5.41;70.27;99025.22;5047985;28;20228;-80
2023/01/16 01:06:33;;;;;;;2.50;0.50;;;;;;;5.37;70.29;99022.91;5047996;28;20235;-80
2023/01/16 01:09:01;;;;;;;1.93;0.50;;;;;;;5.39;70.99;99023.63;5050085;28;20202;-80
2023/01/16 01:11:27;;;;;;;2.13;0.57;;;;;;;5.40;70.72;99026.16;5042515;28;20587;-81
2023/01/16 01:13:54;;;;;;;2.13;0.67;;;;;;;5.42;71.32;99021.63;5054059;28;20221;-81
2023/01/16 01:16:20;;;;;;;2.73;0.93;;;;;;;5.40;71.53;99026.16;5053225;28;20209;-79
2023/01/16 01:18:47;;;;;;;2.70;0.90;;;;;;;5.38;71.94;99030.69;5056350;28;20210;-80
2023/01/16 01:21:13;;;;;;;2.30;0.80;;;;;;;5.39;71.85;99016.56;5047579;28;20292;-79
2023/01/16 01:23:40;;;;;;;5.20;0.63;;;;;;;5.38;72.27;99030.69;5053559;28;20236;-80
2023/01/16 01:26:09;;;;;;;4.17;0.77;;;;;;;5.38;72.48;99021.94;5053712;28;20217;-80
2023/01/16 01:28:36;;;;;;;3.00;0.50;;;;;;;5.34;72.28;99018.69;5052742;28;20653;-80
2023/01/16 01:31:04;;;;;;;2.43;0.80;;;;;;;5.35;72.78;99020.38;5051056;28;20252;-80
2023/01/16 01:33:30;;;;;;;2.67;0.70;;;;;;;5.34;72.81;99007.28;5049904;28;20299;-80
2023/01/16 01:35:57;;;;;;;4.03;1.00;;;;;;;5.33;73.23;99006.44;5045274;28;20212;-80
2023/01/16 01:38:23;;;;;;;3.47;0.80;;;;;;;5.35;73.22;98999.25;5044209;28;20587;-81
2023/01/16 01:40:50;;;;;;;1.20;0.70;;;;;;;5.33;73.46;99001.16;5047010;28;20205;-82
2023/01/16 01:43:19;;;;;;;1.97;0.87;;;;;;;5.31;73.67;99002.22;5050918;28;20722;-81
2023/01/16 01:45:49;;;;;;;2.07;0.93;;;;;;;5.28;73.54;98991.84;5057243;28;20205;-81
2023/01/16 01:48:23;;;;;;;3.27;0.90;;;;;;;5.27;74.26;98984.88;5052295;28;20596;-81
2023/01/16 01:50:56;;;;;;;1.43;0.70;;;;;;;5.23;74.03;98982.44;5042584;28;20197;-80
2023/01/16 01:53:26;;;;;;;2.07;0.60;;;;;;;5.23;74.22;98978.97;5052431;28;20241;-82
2023/01/16 01:55:55;;;;;;;2.40;0.80;;;;;;;5.20;74.24;98974.72;5053320;28;20209;-82
2023/01/16 01:58:25;;;;;;;2.30;0.90;;;;;;;5.19;74.23;98967.78;5046314;28;20656;-81
2023/01/16 02:00:56;;;;;;;1.60;0.63;;;;;;;5.18;74.53;98965.25;5041471;28;20205;-79
2023/01/16 02:03:28;;;;;;;2.13;0.70;;;;;;;5.17;74.42;98958.28;5057890;28;20224;-80
2023/01/16 02:05:58;;;;;;;1.83;0.80;;;;;;;5.14;74.72;98951.41;5044398;28;20209;-79
2023/01/16 02:08:29;;;;;;;3.60;0.77;;;;;;;5.12;74.98;98953.31;5038964;28;20617;-81
2023/01/16 02:11:01;;;;;;;2.37;0.93;;;;;;;5.11;75.34;98950.78;5053078;28;20197;-79
2023/01/16 02:13:29;;;;;;;1.67;0.60;;;;;;;5.09;74.82;98945.59;5047404;28;20232;-81
2023/01/16 02:21:46;;;;;;;2.53;0.90;;;;;;;5.04;75.63;98931.88;5052391;28;20291;-81
2023/01/16 02:24:34;;;;;;;3.83;0.97;;;;;;;5.03;75.51;98934.59;5049874;28;20583;-82
2023/01/16 02:27:20;;;;;;;1.73;0.70;;;;;;;4.99;75.77;98933.16;5043090;28;20684;-82
2023/01/16 02:30:21;;;;;;;4.80;1.20;;;;;;;4.99;75.89;98925.22;5043741;28;20204;-82
2023/01/16 02:33:01;;;;;;;2.67;1.03;;;;;;;4.97;76.10;98920.06;5043810;28;20229;-81
2023/01/16 02:35:40;;;;;;;3.97;0.80;;;;;;;4.96;76.28;98920.16;5051732;28;20205;-81
2023/01/16 02:38:15;;;;;;;4.23;1.10;;;;;;;4.94;76.34;98912.34;5048639;28;20212;-82
2023/01/16 02:40:49;;;;;;;2.57;1.00;;;;;;;4.95;76.17;98906.13;5055038;28;20201;-82
2023/01/16 02:43:28;;;;;;;2.33;0.93;;;;;;;4.92;76.58;98900.19;5042347;28;20590;-81
2023/01/16 02:46:04;;;;;;;3.23;1.10;;;;;;;4.92;76.69;98894.94;5052854;28;20217;-79
2023/01/16 02:48:38;;;;;;;3.10;0.93;;;;;;;4.92;76.47;98897.56;5052590;28;20208;-80
2023/01/16 02:51:07;;;;;;;3.63;1.10;;;;;;;4.89;76.32;98885.41;5051665;28;20292;-82
2023/01/16 02:53:41;;;;;;;2.83;0.90;;;;;;;4.87;76.58;98882.03;5055247;28;20657;-81
2023/01/16 02:56:11;;;;;;;1.97;0.97;;;;;;;4.84;76.88;98871.69;5053057;28;20625;-82
2023/01/16 02:58:42;;;;;;;1.70;0.80;;;;;;;4.83;76.39;98873.53;5054544;28;20586;-80
2023/01/16 03:01:09;;;;;;;3.20;1.13;;;;;;;4.82;76.81;98865.72;5047174;28;20212;-82
2023/01/16 03:03:41;;;;;;;2.47;1.30;;;;;;;4.83;77.26;98864.75;5056554;28;20307;-81
2023/01/16 03:06:31;;;;;;;2.93;0.80;;;;;;;4.83;77.26;98865.59;5056591;28;20202;-81
2023/01/16 03:09:15;;;;;;;4.60;1.07;;;;;;;4.83;77.30;98855.06;5040675;28;20205;-80
2023/01/16 03:11:48;;;;;;;2.70;0.53;;;;;;;4.82;77.69;98850.72;5055520;28;20213;-80
2023/01/16 03:14:29;;;;;;;1.67;0.57;;;;;;;4.82;77.57;98848.09;5051482;28;20220;-80
2023/01/16 03:17:08;;;;;;;2.87;0.90;;;;;;;4.82;77.68;98842.81;5047982;28;20587;-81
2023/01/16 03:19:49;;;;;;;1.13;0.47;;;;;;;4.82;77.72;98840.19;5047303;28;20716;-80
2023/01/16 03:22:24;;;;;;;1.03;0.57;;;;;;;4.77;77.49;98837.00;5051529;28;20233;-82
2023/01/16 03:25:10;;;;;;;0.80;0.50;;;;;;;4.79;77.86;98821.91;5048371;28;20212;-81
2023/01/16 03:27:45;;;;;;;2.77;0.70;;;;;;;4.78;77.92;98814.13;5050192;28;20198;-82
2023/01/16 03:30:19;;;;;;;3.13;0.60;;;;;;;4.78;77.80;98814.13;5058689;28;20698;-82
2023/01/16 03:32:53;;;;;;;1.63;0.50;;;;;;;4.80;78.46;98815.69;5050125;28;20675;-80
2023/01/16 03:35:26;;;;;;;2.20;0.50;;;;;;;4.80;78.07;98807.78;5061026;28;20205;-80
2023/01/16 03:37:55;;;;;;;1.80;0.80;;;;;;;4.82;78.25;98799.78;5052246;28;20210;-81
2023/01/16 03:40:25;;;;;;;3.37;0.90;;;;;;;4.81;78.49;98793.66;5053422;28;20725;-80
2023/01/16 03:43:01;;;;;;;1.90;0.80;;;;;;;4.81;78.61;98787.53;5053110;28;20716;-80
2023/01/16 03:45:38;;;;;;;1.50;1.03;;;;;;;4.81;78.16;98782.25;5047515;28;20643;-80
2023/01/16 03:48:10;;;;;;;1.03;0.50;;;;;;;4.83;78.40;98783.84;5049354;28;20682;-80
2023/01/16 03:50:42;;;;;;;0.40;0.40;;;;;;;4.84;78.16;98782.03;5056245;28;20205;-79
2023/01/16 03:53:13;;;;;;;1.33;0.30;;;;;;;4.82;78.03;98776.03;5050931;28;20233;-80
2023/01/16 03:55:45;;;;;;;2.53;0.50;;;;;;;4.81;77.81;98780.47;5045488;28;20679;-81
2023/01/16 03:58:16;;;;;;;0.97;0.40;;;;;;;4.79;77.96;98778.88;5043788;28;20197;-80
2023/01/16 04:00:49;;;;;;;2.00;0.50;;;;;;;4.76;78.11;98768.53;5045588;28;20221;-81
2023/01/16 04:03:22;;;;;;;1.53;0.63;;;;;;;4.74;78.05;98771.28;5045750;28;20225;-80
2023/01/16 04:05:57;;;;;;;1.33;0.30;;;;;;;4.74;78.07;98765.16;5053438;28;20197;-80
2023/01/16 04:08:29;;;;;;;3.53;0.70;;;;;;;4.73;78.03;98764.31;5049135;28;20575;-80
2023/01/16 04:10:56;;;;;;;1.23;0.60;;;;;;;4.72;78.22;98756.50;5049321;28;20225;-80
2023/01/16 04:13:28;;;;;;;3.10;0.70;;;;;;;4.72;78.33;98761.78;5046512;28;20738;-80
2023/01/16 04:15:58;;;;;;;0.80;0.50;;;;;;;4.71;78.63;98760.94;5055714;28;20224;-80
2023/01/16 04:18:35;;;;;;;2.40;0.50;;;;;;;4.72;78.71;98754.72;5053132;28;20202;-80
2023/01/16 04:21:04;;;;;;;1.83;0.60;;;;;;;4.73;78.24;98745.84;5043240;28;20205;-81
2023/01/16 04:23:31;;;;;;;1.03;0.53;;;;;;;4.72;78.72;98751.22;5055546;28;20232;-80
2023/01/16 04:25:57;;;;;;;1.20;0.70;;;;;;;4.70;78.60;98748.69;5053778;28;20197;-79
2023/01/16 04:28:24;;;;;;;2.27;0.60;;;;;;;4.69;78.66;98743.53;5052806;28;20240;-80
2023/01/16 04:30:50;;;;;;;1.70;0.80;;;;;;;4.68;78.89;98744.47;5053328;28;20649;-80
2023/01/16 04:33:17;;;;;;;1.10;0.73;;;;;;;4.65;78.72;98734.19;5052759;28;20239;-81
2023/01/16 04:35:43;;;;;;;0.60;0.50;;;;;;;4.66;78.57;98720.84;5053998;28;20671;-80
2023/01/16 04:38:12;;;;;;;2.20;0.70;;;;;;;4.63;78.46;98723.72;5052190;28;20205;-81
2023/01/16 04:40:38;;;;;;;1.83;0.70;;;;;;;4.61;78.62;98716.88;5040877;28;20210;-79
2023/01/16 04:43:05;;;;;;;2.77;0.70;;;;;;;4.61;78.49;98715.09;5050526;28;20236;-80
2023/01/16 04:45:31;;;;;;;1.10;0.80;;;;;;;4.59;79.08;98710.88;5053769;28;20197;-80
2023/01/16 04:47:57;;;;;;;1.83;0.50;;;;;;;4.58;78.53;98704.75;5049307;28;20558;-79
2023/01/16 04:50:24;;;;;;;1.00;0.60;;;;;;;4.57;79.23;98692.50;5045654;28;20201;-80
2023/01/16 04:52:51;;;;;;;2.13;0.50;;;;;;;4.55;78.91;98686.50;5050090;28;20225;-80
2023/01/16 04:55:20;;;;;;;1.40;0.67;;;;;;;4.56;79.44;98689.97;5050287;28;20233;-79
2023/01/16 04:57:47;;;;;;;3.60;1.50;;;;;;;4.52;79.45;98687.56;5050719;28;20213;-80
2023/01/16 05:00:14;;;;;;;1.10;0.43;;;;;;;4.52;79.13;98681.44;5052390;28;20234;-80
2023/01/16 05:02:41;;;;;;;2.03;0.70;;;;;;;4.51;79.21;98682.38;5054674;28;20232;-81
2023/01/16 05:05:08;;;;;;;0.93;0.70;;;;;;;4.48;79.31;98677.31;5049170;28;20201;-79
2023/01/16 05:07:34;;;;;;;2.23;0.67;;;;;;;4.45;79.07;98673.13;5047360;28;20217;-79
2023/01/16 05:10:01;;;;;;;1.70;0.60;;;;;;;4.43;79.61;98669.75;5041260;28;20213;-80
2023/01/16 05:12:28;;;;;;;2.93;0.67;;;;;;;4.42;79.23;98667.22;5050894;28;20225;-80
2023/01/16 05:14:55;;;;;;;3.20;0.90;;;;;;;4.40;79.67;98663.84;5044132;28;20218;-81
2023/01/16 05:17:24;;;;;;;0.90;0.50;;;;;;;4.36;79.48;98665.84;5043764;28;20604;-81
2023/01/16 05:19:51;;;;;;;3.43;1.10;;;;;;;4.34;79.50;98662.47;5051361;28;20304;-80
2023/01/16 05:22:17;;;;;;;0.60;0.50;;;;;;;4.31;79.69;98652.16;5052301;28;20727;-81
2023/01/16 05:24:44;;;;;;;1.90;0.40;;;;;;;4.29;79.98;98655.88;5052270;28;20206;-80
2023/01/16 05:27:10;;;;;;;2.27;0.73;;;;;;;4.29;80.05;98655.88;5044806;28;20209;-79
2023/01/16 05:29:38;;;;;;;1.50;0.70;;;;;;;4.29;79.88;98654.06;5052484;28;20201;-80
2023/01/16 05:32:05;;;;;;;2.77;0.80;;;;;;;4.26;80.34;98649.00;5049190;28;20644;-80
2023/01/16 05:34:32;;;;;;;1.90;0.60;;;;;;;4.25;80.10;98647.31;5044254;28;20217;-80
2023/01/16 05:36:58;;;;;;;0.93;0.57;;;;;;;4.26;80.23;98649.00;5051674;28;20208;-80
2023/01/16 05:39:29;;;;;;;1.33;0.57;;;;;;;4.27;80.85;98644.59;5044944;28;20228;-81
2023/01/16 05:41:56;;;;;;;1.33;0.40;;;;;;;4.26;80.90;98640.25;5050786;28;20204;-81
2023/01/16 05:44:22;;;;;;;1.83;0.60;;;;;;;4.28;80.69;98641.00;5042702;28;20200;-82
2023/01/16 05:46:50;;;;;;;1.43;0.50;;;;;;;4.31;80.98;98643.41;5044998;28;20263;-80
2023/01/16 05:49:17;;;;;;;0.50;0.30;;;;;;;4.33;82.08;98638.88;5042606;28;20206;-79
2023/01/16 05:51:43;;;;;;;1.30;0.40;;;;;;;4.32;82.50;98638.03;5042550;28;20214;-80
2023/01/16 05:54:11;;;;;;;0.73;0.27;;;;;;;4.37;82.46;98637.72;5045138;28;20230;-80
2023/01/16 05:56:37;;;;;;;0.57;0.23;;;;;;;4.36;82.88;98622.84;5049379;28;20201;-80
2023/01/16 05:59:03;;;;;;;1.17;0.50;;;;;;;4.35;83.29;98615.88;5054574;28;20215;-81
2023/01/16 06:01:30;;;;;;;0.63;0.40;;;;;;;4.32;83.44;98611.66;5043068;28;20570;-81
2023/01/16 06:03:58;;;;;;;0.87;0.40;;;;;;;4.31;83.69;98611.78;5049663;28;20228;-80
2023/01/16 06:06:24;;;;;;;1.33;0.60;;;;;;;4.29;83.66;98609.28;5044624;28;20212;-80
2023/01/16 06:08:50;;;;;;;1.27;0.40;;;;;;;4.26;83.76;98598.94;5050613;28;20208;-82
2023/01/16 06:11:17;;;;;;;1.23;0.30;;;;;;;4.24;84.07;98590.31;5039867;28;20206;-81
2023/01/16 06:13:44;;;;;;;2.67;0.60;;;;;;;4.21;84.49;98581.75;5048922;28;20237;-81
2023/01/16 06:16:10;;;;;;;1.40;0.60;;;;;;;4.18;84.54;98588.94;5050215;28;20248;-81
2023/01/16 06:18:36;;;;;;;1.23;0.40;;;;;;;4.15;84.09;98583.88;5051541;28;20205;-80
2023/01/16 06:21:04;;;;;;;2.63;0.70;;;;;;;4.13;84.47;98587.56;5051404;28;20209;-81
2023/01/16 06:23:31;;;;;;;3.23;0.57;;;;;;;4.08;84.79;98572.09;5039664;28;20229;-82
2023/01/16 06:25:57;;;;;;;1.87;0.70;;;;;;;4.07;85.42;98574.84;5048434;28;20198;-82
2023/01/16 06:28:24;;;;;;;0.53;0.53;;;;;;;4.04;85.76;98567.13;5053733;28;20209;-82
2023/01/16 06:30:53;;;;;;;1.47;0.70;;;;;;;4.04;85.67;98564.50;5049855;28;20205;-81
2023/01/16 06:33:19;;;;;;;1.57;0.60;;;;;;;4.02;86.30;98561.97;5057193;28;20225;-80
2023/01/16 06:35:46;;;;;;;2.80;0.80;;;;;;;4.01;86.10;98549.75;5047435;28;21165;-81
2023/01/16 06:38:14;;;;;;;1.43;0.90;;;;;;;4.00;86.68;98550.69;5049562;28;20209;-81
2023/01/16 06:40:40;;;;;;;2.10;1.10;;;;;;;3.98;86.74;98544.69;5041362;28;20214;-81
2023/01/16 06:43:06;;;;;;;1.47;0.77;;;;;;;3.96;86.53;98536.06;5044589;28;20249;-80
2023/01/16 06:45:33;;;;;;;3.63;1.10;;;;;;;3.94;86.98;98535.31;5052371;28;20208;-81
2023/01/16 06:47:59;;;;;;;1.97;0.80;;;;;;;3.91;87.45;98525.03;5049995;28;20202;-80
2023/01/16 06:50:26;;;;;;;2.93;0.63;;;;;;;3.90;87.28;98522.50;5041248;28;20807;-80
2023/01/16 06:52:52;;;;;;;2.90;0.80;;;;;;;3.88;87.64;98519.13;5035412;28;20218;-81
2023/01/16 06:55:20;;;;;;;3.37;0.83;;;;;;;3.86;87.57;98513.13;5045867;28;20229;-81
2023/01/16 06:57:48;;;;;;;1.53;1.00;;;;;;;3.87;87.65;98514.81;5040646;28;20201;-81
2023/01/16 07:00:15;;;;;;;2.10;0.80;;;;;;;3.86;87.83;98507.84;5041690;28;20575;-82
2023/01/16 07:02:42;;;;;;;2.53;1.10;;;;;;;3.84;88.18;98506.16;5037008;28;20236;-81
2023/01/16 07:05:09;;;;;;;1.83;0.90;;;;;;;3.83;88.09;98503.63;5050117;28;20205;-82
2023/01/16 07:07:36;;;;;;;2.20;0.80;;;;;;;3.82;88.42;98505.44;5046377;28;20610;-81
2023/01/16 07:10:04;;;;;;;1.57;0.73;;;;;;;3.84;88.99;98505.31;5051375;28;20584;-81
2023/01/16 07:12:32;;;;;;;3.53;1.07;;;;;;;3.83;88.78;98498.38;5036903;28;20233;-80
2023/01/16 07:23:20;;;;;;;3.47;0.83;;;;;;;3.85;89.63;98480.69;5040863;28;20908;-80
2023/01/16 07:25:48;;;;;;;1.20;0.77;;;;;;;3.84;89.41;98479.84;5041214;28;20198;-82
2023/01/16 07:28:16;;;;;;;2.13;1.00;;;;;;;3.84;89.86;98481.63;5049697;28;20209;-82
2023/01/16 07:30:44;;;;;;;1.87;0.70;;;;;;;3.82;89.73;98470.34;5045824;28;20233;-82
2023/01/16 07:33:10;;;;;;;1.63;0.87;;;;;;;3.80;90.01;98472.25;5042166;28;20238;-81
2023/01/16 07:35:37;;;;;;;4.70;0.70;;;;;;;3.79;89.59;98465.31;5043774;28;20218;-81
2023/01/16 07:38:03;;;;;;;2.50;1.43;;;;;;;3.77;89.61;98446.97;5041228;28;20213;-80
2023/01/16 07:40:30;;;;;;;3.10;0.87;;;;;;;3.78;89.53;98437.28;5040920;28;20205;-81
2023/01/16 07:42:57;;;;;;;1.10;0.80;;;;;;;3.76;89.79;98444.47;5048204;28;20221;-80
2023/01/16 07:45:24;;;;;;;2.90;0.90;;;;;;;3.76;89.31;98444.47;5045900;28;20217;-80
2023/01/16 07:47:51;;;;;;;2.63;0.80;;;;;;;3.75;90.35;98434.91;5040049;28;20207;-81
2023/01/16 07:50:17;;;;;;;3.13;1.00;;;;;;;3.74;89.70;98435.84;5053379;28;20201;-80
2023/01/16 07:52:45;;;;;;;2.07;0.83;;;;;;;3.74;90.16;98427.94;5060386;28;20229;-81
2023/01/16 07:55:12;;;;;;;2.97;0.90;;;;;;;3.73;90.28;98424.47;5051105;28;20715;-81
2023/01/16 07:57:39;;;;;;;2.40;0.70;;;;;;;3.74;90.02;98426.16;5052512;28;20209;-81
2023/01/16 08:00:08;;;;;;;1.87;0.63;;;;;;;3.75;89.96;98421.75;5057486;28;20205;-81
2023/01/16 08:02:35;;;;;;;2.20;0.90;;;;;;;3.75;90.14;98414.69;5049521;28;20805;-81
2023/01/16 08:05:02;;;;;;;1.90;0.77;;;;;;;3.76;89.76;98411.06;5043663;28;20220;-82
2023/01/16 08:07:28;;;;;;;2.30;0.77;;;;;;;3.79;89.78;98413.50;5042316;28;20737;-82
2023/01/16 08:09:55;;;;;;;3.00;0.93;;;;;;;3.82;90.43;98407.16;5049988;28;20578;-81
2023/01/16 08:12:21;;;;;;;3.13;0.90;;;;;;;3.85;90.60;98412.22;5046076;28;20225;-81
2023/01/16 08:14:48;;;;;;;4.27;0.60;;;;;;;3.88;90.28;98401.47;5043138;28;20229;-80
2023/01/16 08:17:15;;;;;;;1.90;1.67;;;;;;;3.93;90.17;98387.97;5050546;28;20216;-80
2023/01/16 08:19:42;;;;;;;1.80;0.87;;;;;;;3.95;89.90;98391.31;5053128;28;20583;-81
2023/01/16 08:22:09;;;;;;;1.47;1.30;;;;;;;4.00;90.07;98392.69;5053205;28;20237;-82
2023/01/16 08:24:35;;;;;;;2.00;1.00;;;;;;;4.03;90.27;98384.56;5047932;28;20209;-80
2023/01/16 08:27:02;;;;;;;2.90;0.90;;;;;;;4.08;90.18;98384.22;5051970;28;20205;-80
2023/01/16 08:29:28;;;;;;;3.33;1.33;;;;;;;4.09;89.45;98378.84;5043130;28;20202;-81
2023/01/16 08:31:55;;;;;;;3.07;1.00;;;;;;;4.13;89.86;98369.75;5055553;28;20205;-81
2023/01/16 08:34:21;;;;;;;3.93;1.03;;;;;;;4.15;89.49;98359.94;5050737;28;20205;-80
2023/01/16 08:36:49;;;;;;;2.60;0.90;;;;;;;4.21;89.77;98339.38;5049105;28;20232;-80
2023/01/16 08:39:15;;;;;;;1.87;0.90;;;;;;;4.26;89.30;98334.63;5043649;28;20202;-80
2023/01/16 08:52:43;;;;;;;1.90;0.60;;;;;;;4.46;87.98;98323.44;5053862;28;20267;-80
2023/01/16 08:55:10;;;;;;;2.60;0.80;;;;;;;4.51;86.92;98326.53;5051739;28;20233;-81
2023/01/16 08:57:36;;;;;;;4.37;1.23;;;;;;;4.54;86.96;98327.16;5058454;28;20206;-79
2023/01/16 09:00:06;;;;;;;3.83;0.60;;;;;;;4.59;87.17;98318.91;5043977;28;20212;-80
2023/01/16 09:02:36;;;;;;;1.87;0.70;;;;;;;4.66;86.65;98317.47;5052258;28;20244;-80
2023/01/16 09:05:02;;;;;;;2.37;0.70;;;;;;;4.73;86.63;98309.94;5048686;28;20198;-80
2023/01/16 09:07:29;;;;;;;1.17;0.60;;;;;;;4.78;86.21;98308.63;5046728;28;20571;-80
2023/01/16 09:09:57;;;;;;;2.13;0.57;;;;;;;4.83;85.99;98303.00;5048319;28;20202;-80
2023/01/16 09:15:08;;;;;;;3.03;1.20;;;;;;;4.95;85.33;98280.13;5050457;28;20228;-81
2023/01/16 09:17:35;;;;;;;3.47;1.23;;;;;;;4.98;85.05;98288.63;5039060;28;20800;-81
2023/01/16 09:20:01;;;;;;;0.83;0.70;;;;;;;5.03;84.05;98288.25;5045376;28;20205;-80
2023/01/16 09:22:28;;;;;;;1.00;0.50;;;;;;;5.04;83.40;98282.03;5050763;28;20217;-80
2023/01/16 09:24:54;;;;;;;2.40;1.10;;;;;;;5.06;83.25;98280.09;5043051;28;20224;-80
2023/01/16 09:27:24;;;;;;;1.43;0.70;;;;;;;5.04;82.95;98274.94;5041751;28;20255;-81
2023/01/16 09:29:51;;;;;;;1.83;0.80;;;;;;;5.04;82.50;98267.03;5044667;28;20218;-81
2023/01/16 09:32:18;;;;;;;2.23;1.17;;;;;;;5.05;82.58;98266.06;5044084;28;20228;-81
2023/01/16 09:34:45;;;;;;;2.03;0.73;;;;;;;5.09;81.97;98256.13;5044731;28;21827;-80
2023/01/16 09:37:12;;;;;;;2.63;0.87;;;;;;;5.11;81.07;98254.22;5040172;28;20691;-81
2023/01/16 09:39:38;;;;;;;1.80;0.60;;;;;;;5.10;81.00;98245.44;5041054;28;20649;-82
2023/01/16 09:45:17;;;;;;;2.53;0.77;;;;;;;5.18;81.51;98237.78;5035456;28;20197;-80
2023/01/16 09:47:49;;;;;;;3.53;1.13;;;;;;;5.23;81.06;98238.22;5045472;28;20205;-82
2023/01/16 09:50:25;;;;;;;2.07;0.87;;;;;;;5.27;81.12;98236.19;5039053;28;20261;-81
2023/01/16 09:58:36;;;;;;;2.50;0.97;;;;;;;5.38;80.56;98211.56;5036984;28;20285;-80
2023/01/16 10:01:03;;;;;;;2.40;0.77;;;;;;;5.39;80.12;98200.88;5039839;28;20662;-81
2023/01/16 10:03:30;;;;;;;2.87;0.93;;;;;;;5.42;79.65;98195.34;5047102;28;20220;-81
2023/01/16 10:06:04;;;;;;;1.37;0.60;;;;;;;5.42;79.48;98198.00;5043516;28;20616;-82
2023/01/16 10:08:37;;;;;;;2.43;0.83;;;;;;;5.44;79.29;98182.03;5051107;28;20220;-81
2023/01/16 10:11:11;;;;;;;2.07;0.77;;;;;;;5.45;79.06;98165.25;5045799;28;20205;-83
2023/01/16 10:14:06;;;;;;;2.07;0.80;;;;;;;5.47;78.53;98155.41;5046025;28;20230;-81
2023/01/16 10:16:45;;;;;;;2.70;0.80;;;;;;;5.48;78.40;98152.63;5050871;28;20668;-80
2023/01/16 10:19:21;;;;;;;1.53;0.77;;;;;;;5.49;78.53;98141.13;5045935;28;20220;-81
2023/01/16 10:21:59;;;;;;;1.50;0.70;;;;;;;5.52;78.23;98138.22;5044634;28;20204;-80
2023/01/16 10:24:39;;;;;;;3.17;0.50;;;;;;;5.56;77.93;98130.88;5041540;28;20797;-81
2023/01/16 10:27:16;;;;;;;1.63;0.50;;;;;;;5.57;77.85;98119.34;5045730;28;20216;-81
2023/01/16 10:29:51;;;;;;;1.13;0.50;;;;;;;5.58;77.45;98106.00;5042680;28;20206;-81
2023/01/16 10:32:24;;;;;;;3.73;0.63;;;;;;;5.62;77.34;98105.75;5043059;28;20234;-81
2023/01/16 10:34:55;;;;;;;2.60;1.13;;;;;;;5.64;77.26;98090.63;5043064;28;20212;-81
2023/01/16 10:37:22;;;;;;;2.20;0.47;;;;;;;5.65;76.80;98092.31;5042139;28;20221;-83
2023/01/16 10:39:50;;;;;;;1.47;0.40;;;;;;;5.67;75.84;98082.47;5049289;28;20210;-82
2023/01/16 10:50:43;;;;;;;3.13;0.57;;;;;;;5.66;74.99;98049.09;5047132;28;20224;-81
2023/01/16 10:53:11;;;;;;;2.27;0.50;;;;;;;5.64;74.74;98035.19;5045582;28;20221;-80
2023/01/16 10:55:44;;;;;;;0.90;0.30;;;;;;;5.63;74.35;98026.44;5049505;28;20221;-81
2023/01/16 10:58:23;;;;;;;0.77;0.47;;;;;;;5.64;73.64;98011.44;5040120;28;20420;-82
2023/01/16 11:00:51;;;;;;;1.13;0.47;;;;;;;5.62;73.38;98008.06;5043845;28;20194;-81
2023/01/16 11:03:24;;;;;;;1.97;0.70;;;;;;;5.61;73.38;98016.97;5043558;28;20218;-82
2023/01/16 11:05:52;;;;;;;0.57;0.40;;;;;;;5.61;73.33;98006.41;5040558;28;20218;-82
2023/01/16 11:08:19;;;;;;;3.60;0.70;;;;;;;5.62;73.14;98001.00;5047417;28;20206;-82
2023/01/16 11:10:48;;;;;;;2.83;0.80;;;;;;;5.62;73.27;97992.22;5045863;28;20201;-81
2023/01/16 11:19:20;;;;;;;1.77;0.80;;;;;;;5.66;72.40;97951.41;5004895;28;20398;-81
2023/01/16 11:21:51;;;;;;;1.63;0.40;;;;;;;5.68;72.05;97934.47;5050149;28;20208;-81
2023/01/16 11:24:20;;;;;;;1.23;0.60;;;;;;;5.67;72.01;97914.31;5048856;28;20232;-80
2023/01/16 11:26:50;;;;;;;1.10;0.60;;;;;;;5.72;71.37;97924.47;5041877;28;20795;-81
2023/01/16 11:29:18;;;;;;;0.97;0.40;;;;;;;5.71;71.41;97913.09;5041159;28;20575;-81
2023/01/16 11:31:54;;;;;;;1.37;0.50;;;;;;;5.73;71.14;97905.03;5048151;28;20213;-81
2023/01/16 11:34:22;;;;;;;2.43;0.67;;;;;;;5.74;71.00;97909.31;5044432;28;20202;-82
2023/01/16 11:36:49;;;;;;;4.20;0.93;;;;;;;5.77;70.51;97894.03;5047589;28;20258;-82
2023/01/16 11:39:21;;;;;;;2.40;0.60;;;;;;;5.77;70.10;97888.75;5051210;28;20740;-81
2023/01/16 11:41:50;;;;;;;1.27;0.40;;;;;;;5.82;70.04;97878.63;5043088;28;20233;-80
2023/01/16 11:47:11;;;;;;;2.40;0.63;;;;;;;5.86;70.07;97863.34;5050300;28;20343;-81
2023/01/16 11:49:40;;;;;;;2.03;0.43;;;;;;;5.92;69.55;97857.53;5048446;28;20210;-82
2023/01/16 11:52:12;;;;;;;1.90;0.60;;;;;;;5.94;68.84;97855.59;5044989;28;20694;-81
2023/01/16 11:54:39;;;;;;;3.33;0.70;;;;;;;5.98;69.36;97849.09;5050737;28;20213;-81
2023/01/16 11:57:17;;;;;;;1.73;0.60;;;;;;;5.98;69.02;97857.00;5047748;28;20230;-82
2023/01/16 12:00:08;;;;;;;1.30;0.50;;;;;;;6.04;68.11;97840.63;5043104;28;20653;-80
2023/01/16 12:02:56;;;;;;;1.90;0.50;;;;;;;6.08;68.03;97836.75;5044292;28;20225;-80
2023/01/16 12:08:36;;;;;;;1.17;0.50;;;;;;;6.11;68.24;97822.41;5051964;28;20771;-82
2023/01/16 12:11:07;;;;;;;1.80;0.57;;;;;;;6.11;68.00;97815.31;5044867;28;20210;-80
2023/01/16 12:16:37;;;;;;;1.30;1.07;;;;;;;6.15;67.92;97797.38;5046435;28;20379;-81
2023/01/16 12:19:21;;;;;;;3.40;0.80;;;;;;;6.18;68.21;97791.81;5045405;28;20202;-82
2023/01/16 12:21:56;;;;;;;1.40;0.70;;;;;;;6.16;68.53;97775.25;5040453;28;20812;-81
2023/01/16 12:24:36;;;;;;;2.20;0.70;;;;;;;6.18;68.46;97768.88;5047816;28;20216;-80
2023/01/16 12:27:18;;;;;;;2.77;0.77;;;;;;;6.19;69.03;97772.34;5049434;28;20198;-81
2023/01/16 12:29:57;;;;;;;1.70;0.57;;;;;;;6.20;69.02;97766.91;5044053;28;20557;-80
2023/01/16 12:32:37;;;;;;;0.87;0.50;;;;;;;6.18;69.42;97745.09;5047138;28;20217;-81
2023/01/16 12:35:27;;;;;;;0.97;0.50;;;;;;;6.20;69.58;97737.84;5044891;28;20202;-81
2023/01/16 12:38:08;;;;;;;1.43;0.50;;;;;;;6.21;69.34;97736.03;5041093;28;20236;-79
2023/01/16 12:43:17;;;;;;;1.13;0.40;;;;;;;6.25;68.86;97726.88;5043111;28;20194;-81
2023/01/16 12:44:01;;;;;;;1.73;0.60;;;;;;;6.26;69.36;97718.78;5041287;28;20230;-80
2023/01/16 12:46:35;;;;;;;1.37;0.63;;;;;;;6.29;69.21;97712.38;5045796;28;20211;-82
2023/01/16 12:49:17;;;;;;;2.13;0.60;;;;;;;6.34;68.93;97707.50;5041201;28;20209;-79
2023/01/16 12:52:11;;;;;;;0.60;0.50;;;;;;;6.34;68.42;97709.31;5045653;28;20198;-81
2023/01/16 12:54:53;;;;;;;2.70;0.70;;;;;;;6.35;68.17;97695.13;5042814;28;20704;-78